sensor_id;sensor_type;location;lat;lon;timestamp;temperature;humidity
7155;DHT22;3619;53.784;10.440;2023-03-02T01:09:55;0.20;99.90
7155;DHT22;3619;53.784;10.440;2023-03-02T02:14:04;-0.40;99.90
7155;DHT22;3619;53.784;10.440;2023-03-02T02:17:20;-0.60;99.90
7155;DHT22;3619;53.784;10.440;2023-03-02T02:20:34;-0.60;99.90
7155;DHT22;3619;53.784;10.440;2023-03-02T02:23:48;-0.60;99.90
7155;DHT22;3619;53.784;10.440;2023-03-02T02:27:11;-0.50;99.90
7155;DHT22;3619;53.784;10.440;2023-03-02T02:29:53;-0.50;99.90
7155;DHT22;3619;53.784;10.440;2023-03-02T02:32:23;-0.60;99.90
7155;DHT22;3619;53.784;10.440;2023-03-02T02:34:55;-0.50;99.90
7155;DHT22;3619;53.784;10.440;2023-03-02T02:37:27;-0.60;99.90
7155;DHT22;3619;53.784;10.440;2023-03-02T02:39:56;-0.50;99.90
7155;DHT22;3619;53.784;10.440;2023-03-02T02:42:27;-0.50;99.90
7155;DHT22;3619;53.784;10.440;2023-03-02T02:45:00;-0.50;99.90
7155;DHT22;3619;53.784;10.440;2023-03-02T02:47:27;-0.50;99.90
7155;DHT22;3619;53.784;10.440;2023-03-02T02:49:55;-0.50;99.90
7155;DHT22;3619;53.784;10.440;2023-03-02T02:52:24;-0.50;99.90
7155;DHT22;3619;53.784;10.440;2023-03-02T02:54:54;-0.50;99.90
7155;DHT22;3619;53.784;10.440;2023-03-02T02:57:25;-0.50;99.90
7155;DHT22;3619;53.784;10.440;2023-03-02T02:59:57;-0.50;99.90
7155;DHT22;3619;53.784;10.440;2023-03-02T03:02:26;-0.50;99.90
7155;DHT22;3619;53.784;10.440;2023-03-02T03:04:53;-0.50;99.90
7155;DHT22;3619;53.784;10.440;2023-03-02T03:07:27;-0.50;99.90
7155;DHT22;3619;53.784;10.440;2023-03-02T03:20:45;-0.60;99.90
7155;DHT22;3619;53.784;10.440;2023-03-02T03:23:59;-0.70;99.90
7155;DHT22;3619;53.784;10.440;2023-03-02T05:36:03;-0.70;99.90
7155;DHT22;3619;53.784;10.440;2023-03-02T05:42:14;-0.60;99.90
7155;DHT22;3619;53.784;10.440;2023-03-02T05:48:59;-0.60;99.90
7155;DHT22;3619;53.784;10.440;2023-03-02T05:55:10;-0.50;99.90
7155;DHT22;3619;53.784;10.440;2023-03-02T05:57:37;-0.60;99.90
7155;DHT22;3619;53.784;10.440;2023-03-02T06:00:09;-0.60;99.90
7155;DHT22;3619;53.784;10.440;2023-03-02T06:02:36;-0.60;99.90
7155;DHT22;3619;53.784;10.440;2023-03-02T06:05:04;-0.60;99.90
7155;DHT22;3619;53.784;10.440;2023-03-02T06:07:31;-0.60;99.90
7155;DHT22;3619;53.784;10.440;2023-03-02T06:09:58;-0.50;99.90
7155;DHT22;3619;53.784;10.440;2023-03-02T06:12:26;-0.50;99.90
7155;DHT22;3619;53.784;10.440;2023-03-02T06:15:56;-0.50;99.90
7155;DHT22;3619;53.784;10.440;2023-03-02T06:17:48;-0.50;99.90
7155;DHT22;3619;53.784;10.440;2023-03-02T06:20:15;-0.40;99.90
7155;DHT22;3619;53.784;10.440;2023-03-02T06:22:44;-0.40;99.90
7155;DHT22;3619;53.784;10.440;2023-03-02T06:25:14;-0.40;99.90
7155;DHT22;3619;53.784;10.440;2023-03-02T06:27:43;-0.40;99.90
7155;DHT22;3619;53.784;10.440;2023-03-02T06:30:14;-0.30;99.90
7155;DHT22;3619;53.784;10.440;2023-03-02T06:32:41;-0.30;99.90
7155;DHT22;3619;53.784;10.440;2023-03-02T06:35:13;-0.30;99.90
7155;DHT22;3619;53.784;10.440;2023-03-02T06:37:49;-0.30;99.90
7155;DHT22;3619;53.784;10.440;2023-03-02T06:40:17;-0.30;99.90
7155;DHT22;3619;53.784;10.440;2023-03-02T06:42:47;-0.30;99.90
7155;DHT22;3619;53.784;10.440;2023-03-02T06:45:14;-0.30;99.90
7155;DHT22;3619;53.784;10.440;2023-03-02T06:47:41;-0.20;99.90
7155;DHT22;3619;53.784;10.440;2023-03-02T06:50:09;-0.20;99.90
7155;DHT22;3619;53.784;10.440;2023-03-02T06:52:36;-0.20;99.90
7155;DHT22;3619;53.784;10.440;2023-03-02T06:55:03;-0.20;99.90
7155;DHT22;3619;53.784;10.440;2023-03-02T06:57:30;-0.20;99.90
7155;DHT22;3619;53.784;10.440;2023-03-02T07:00:05;-0.10;99.90
7155;DHT22;3619;53.784;10.440;2023-03-02T07:02:34;-0.10;99.90
7155;DHT22;3619;53.784;10.440;2023-03-02T07:05:01;-0.20;99.90
7155;DHT22;3619;53.784;10.440;2023-03-02T07:07:30;-0.20;99.90
7155;DHT22;3619;53.784;10.440;2023-03-02T07:09:57;-0.10;99.90
7155;DHT22;3619;53.784;10.440;2023-03-02T07:12:24;-0.10;99.90
7155;DHT22;3619;53.784;10.440;2023-03-02T07:14:51;-0.10;99.90
7155;DHT22;3619;53.784;10.440;2023-03-02T07:17:19;-0.10;99.90
7155;DHT22;3619;53.784;10.440;2023-03-02T07:19:45;0.00;99.90
7155;DHT22;3619;53.784;10.440;2023-03-02T07:22:12;-0.10;99.90
7155;DHT22;3619;53.784;10.440;2023-03-02T07:24:39;0.00;99.90
7155;DHT22;3619;53.784;10.440;2023-03-02T07:27:06;0.00;99.90
7155;DHT22;3619;53.784;10.440;2023-03-02T07:29:33;0.00;99.90
7155;DHT22;3619;53.784;10.440;2023-03-02T07:31:59;0.20;99.90
7155;DHT22;3619;53.784;10.440;2023-03-02T07:34:28;0.10;99.90
7155;DHT22;3619;53.784;10.440;2023-03-02T07:36:55;0.10;99.90
7155;DHT22;3619;53.784;10.440;2023-03-02T07:39:24;0.10;99.90
7155;DHT22;3619;53.784;10.440;2023-03-02T07:41:50;0.20;99.90
7155;DHT22;3619;53.784;10.440;2023-03-02T07:44:17;0.30;99.90
7155;DHT22;3619;53.784;10.440;2023-03-02T07:46:44;0.30;99.90
7155;DHT22;3619;53.784;10.440;2023-03-02T07:49:11;0.20;99.90
7155;DHT22;3619;53.784;10.440;2023-03-02T07:51:39;0.30;99.90
7155;DHT22;3619;53.784;10.440;2023-03-02T07:54:06;0.40;99.90
7155;DHT22;3619;53.784;10.440;2023-03-02T07:56:32;0.40;99.90
7155;DHT22;3619;53.784;10.440;2023-03-02T07:58:59;0.40;99.90
7155;DHT22;3619;53.784;10.440;2023-03-02T08:01:28;0.40;99.90
7155;DHT22;3619;53.784;10.440;2023-03-02T08:03:55;0.30;99.90
7155;DHT22;3619;53.784;10.440;2023-03-02T08:06:22;0.20;99.90
7155;DHT22;3619;53.784;10.440;2023-03-02T08:08:50;0.10;99.90
7155;DHT22;3619;53.784;10.440;2023-03-02T08:11:17;0.10;99.90
7155;DHT22;3619;53.784;10.440;2023-03-02T08:13:44;0.20;99.90
7155;DHT22;3619;53.784;10.440;2023-03-02T08:16:13;0.20;99.90
7155;DHT22;3619;53.784;10.440;2023-03-02T08:18:41;0.30;99.90
7155;DHT22;3619;53.784;10.440;2023-03-02T08:21:14;0.40;99.90
7155;DHT22;3619;53.784;10.440;2023-03-02T08:23:41;0.40;99.90
7155;DHT22;3619;53.784;10.440;2023-03-02T08:26:10;0.50;99.90
7155;DHT22;3619;53.784;10.440;2023-03-02T08:28:36;0.40;99.90
7155;DHT22;3619;53.784;10.440;2023-03-02T08:31:05;0.40;99.90
7155;DHT22;3619;53.784;10.440;2023-03-02T08:33:32;0.50;99.90
7155;DHT22;3619;53.784;10.440;2023-03-02T08:36:01;0.60;99.90
7155;DHT22;3619;53.784;10.440;2023-03-02T08:38:29;0.70;99.90
7155;DHT22;3619;53.784;10.440;2023-03-02T08:40:56;0.80;99.90
7155;DHT22;3619;53.784;10.440;2023-03-02T08:43:24;0.60;99.90
7155;DHT22;3619;53.784;10.440;2023-03-02T08:45:53;0.60;99.90
7155;DHT22;3619;53.784;10.440;2023-03-02T08:48:21;0.50;99.90
7155;DHT22;3619;53.784;10.440;2023-03-02T08:50:54;0.60;99.90
7155;DHT22;3619;53.784;10.440;2023-03-02T08:53:21;0.70;99.90
7155;DHT22;3619;53.784;10.440;2023-03-02T08:55:49;0.70;99.90
7155;DHT22;3619;53.784;10.440;2023-03-02T08:58:16;0.60;99.90
7155;DHT22;3619;53.784;10.440;2023-03-02T09:00:45;0.50;99.90
7155;DHT22;3619;53.784;10.440;2023-03-02T09:03:11;0.60;99.90
7155;DHT22;3619;53.784;10.440;2023-03-02T09:05:38;0.70;99.90
7155;DHT22;3619;53.784;10.440;2023-03-02T09:08:06;0.70;99.90
7155;DHT22;3619;53.784;10.440;2023-03-02T09:10:33;0.70;99.90
7155;DHT22;3619;53.784;10.440;2023-03-02T09:13:00;0.80;99.90
7155;DHT22;3619;53.784;10.440;2023-03-02T09:15:27;0.80;99.90
7155;DHT22;3619;53.784;10.440;2023-03-02T09:17:55;0.80;99.90
7155;DHT22;3619;53.784;10.440;2023-03-02T09:20:22;0.70;99.90
7155;DHT22;3619;53.784;10.440;2023-03-02T09:22:49;0.70;99.90
7155;DHT22;3619;53.784;10.440;2023-03-02T09:25:16;0.90;99.90
7155;DHT22;3619;53.784;10.440;2023-03-02T09:27:44;0.90;99.90
7155;DHT22;3619;53.784;10.440;2023-03-02T09:30:12;0.90;99.90
7155;DHT22;3619;53.784;10.440;2023-03-02T09:32:39;0.90;99.90
7155;DHT22;3619;53.784;10.440;2023-03-02T09:35:08;0.80;99.90
7155;DHT22;3619;53.784;10.440;2023-03-02T09:37:34;0.80;99.90
7155;DHT22;3619;53.784;10.440;2023-03-02T09:40:04;0.90;99.90
7155;DHT22;3619;53.784;10.440;2023-03-02T09:42:51;0.90;99.90
7155;DHT22;3619;53.784;10.440;2023-03-02T09:45:38;0.90;99.90
7155;DHT22;3619;53.784;10.440;2023-03-02T09:48:13;0.70;99.90
7155;DHT22;3619;53.784;10.440;2023-03-02T09:50:51;0.70;99.90
7155;DHT22;3619;53.784;10.440;2023-03-02T09:53:36;0.80;99.90
7155;DHT22;3619;53.784;10.440;2023-03-02T09:56:12;0.70;99.90
7155;DHT22;3619;53.784;10.440;2023-03-02T09:58:41;0.70;99.90
7155;DHT22;3619;53.784;10.440;2023-03-02T10:01:14;0.80;99.90
7155;DHT22;3619;53.784;10.440;2023-03-02T10:03:47;0.80;99.90
7155;DHT22;3619;53.784;10.440;2023-03-02T10:06:15;0.80;99.90
7155;DHT22;3619;53.784;10.440;2023-03-02T10:08:42;0.90;99.90
7155;DHT22;3619;53.784;10.440;2023-03-02T10:11:15;0.90;99.90
7155;DHT22;3619;53.784;10.440;2023-03-02T10:13:47;1.00;99.90
7155;DHT22;3619;53.784;10.440;2023-03-02T10:16:25;1.00;99.90
7155;DHT22;3619;53.784;10.440;2023-03-02T10:19:02;1.00;99.90
7155;DHT22;3619;53.784;10.440;2023-03-02T10:21:37;1.00;99.90
7155;DHT22;3619;53.784;10.440;2023-03-02T10:24:14;1.10;99.90
7155;DHT22;3619;53.784;10.440;2023-03-02T10:26:44;1.20;99.90
7155;DHT22;3619;53.784;10.440;2023-03-02T10:29:25;1.20;99.90
7155;DHT22;3619;53.784;10.440;2023-03-02T10:31:59;1.10;99.90
7155;DHT22;3619;53.784;10.440;2023-03-02T10:34:29;1.00;99.90
7155;DHT22;3619;53.784;10.440;2023-03-02T10:36:57;1.00;99.90
7155;DHT22;3619;53.784;10.440;2023-03-02T10:39:24;1.00;99.90
7155;DHT22;3619;53.784;10.440;2023-03-02T10:41:55;1.30;99.90
7155;DHT22;3619;53.784;10.440;2023-03-02T10:44:28;1.40;99.90
7155;DHT22;3619;53.784;10.440;2023-03-02T10:46:56;1.50;99.90
7155;DHT22;3619;53.784;10.440;2023-03-02T10:49:26;1.40;99.90
7155;DHT22;3619;53.784;10.440;2023-03-02T10:51:59;1.50;99.90
7155;DHT22;3619;53.784;10.440;2023-03-02T10:54:27;1.40;99.90
7155;DHT22;3619;53.784;10.440;2023-03-02T10:56:56;1.50;99.90
7155;DHT22;3619;53.784;10.440;2023-03-02T10:59:43;1.40;99.90
7155;DHT22;3619;53.784;10.440;2023-03-02T11:02:15;1.50;99.90
7155;DHT22;3619;53.784;10.440;2023-03-02T11:04:43;1.50;99.90
7155;DHT22;3619;53.784;10.440;2023-03-02T11:07:15;1.60;99.90
7155;DHT22;3619;53.784;10.440;2023-03-02T11:09:53;1.50;99.90
7155;DHT22;3619;53.784;10.440;2023-03-02T11:12:23;1.30;99.90
7155;DHT22;3619;53.784;10.440;2023-03-02T11:15:00;1.50;99.90
7155;DHT22;3619;53.784;10.440;2023-03-02T11:17:30;1.40;99.90
7155;DHT22;3619;53.784;10.440;2023-03-02T11:19:57;1.40;99.90
7155;DHT22;3619;53.784;10.440;2023-03-02T11:22:32;1.70;99.90
7155;DHT22;3619;53.784;10.440;2023-03-02T11:25:04;1.70;99.90
7155;DHT22;3619;53.784;10.440;2023-03-02T11:27:35;1.70;99.90
7155;DHT22;3619;53.784;10.440;2023-03-02T11:30:10;1.60;99.90
7155;DHT22;3619;53.784;10.440;2023-03-02T11:32:43;1.60;99.90
7155;DHT22;3619;53.784;10.440;2023-03-02T11:35:13;1.60;99.90
7155;DHT22;3619;53.784;10.440;2023-03-02T11:37:48;1.60;99.90
7155;DHT22;3619;53.784;10.440;2023-03-02T11:40:22;1.80;99.90
7155;DHT22;3619;53.784;10.440;2023-03-02T11:42:51;1.90;99.90
7155;DHT22;3619;53.784;10.440;2023-03-02T11:45:22;2.10;99.90
7155;DHT22;3619;53.784;10.440;2023-03-02T11:47:55;2.10;99.90
7155;DHT22;3619;53.784;10.440;2023-03-02T11:50:24;2.20;99.90
7155;DHT22;3619;53.784;10.440;2023-03-02T11:52:56;2.20;99.90
7155;DHT22;3619;53.784;10.440;2023-03-02T11:55:25;2.30;99.90
7155;DHT22;3619;53.784;10.440;2023-03-02T11:57:56;2.30;99.90
7155;DHT22;3619;53.784;10.440;2023-03-02T12:00:29;2.40;99.90
7155;DHT22;3619;53.784;10.440;2023-03-02T12:02:58;2.30;99.90
7155;DHT22;3619;53.784;10.440;2023-03-02T12:05:26;2.20;99.90
7155;DHT22;3619;53.784;10.440;2023-03-02T12:07:59;2.20;99.90
7155;DHT22;3619;53.784;10.440;2023-03-02T12:10:32;2.20;99.90
7155;DHT22;3619;53.784;10.440;2023-03-02T12:13:06;2.40;99.90
7155;DHT22;3619;53.784;10.440;2023-03-02T12:15:40;2.70;99.90
7155;DHT22;3619;53.784;10.440;2023-03-02T12:21:13;2.80;99.90
7155;DHT22;3619;53.784;10.440;2023-03-02T12:23:59;3.10;99.90
7155;DHT22;3619;53.784;10.440;2023-03-02T12:26:32;3.10;99.90
7155;DHT22;3619;53.784;10.440;2023-03-02T12:29:03;3.10;99.90
7155;DHT22;3619;53.784;10.440;2023-03-02T12:31:42;2.90;99.90
7155;DHT22;3619;53.784;10.440;2023-03-02T12:34:34;2.90;99.90
7155;DHT22;3619;53.784;10.440;2023-03-02T12:37:06;2.80;99.90
7155;DHT22;3619;53.784;10.440;2023-03-02T12:40:17;2.90;99.90
7155;DHT22;3619;53.784;10.440;2023-03-02T12:42:56;3.10;99.90
7155;DHT22;3619;53.784;10.440;2023-03-02T12:45:40;3.10;99.90
7155;DHT22;3619;53.784;10.440;2023-03-02T12:48:22;3.00;99.90
7155;DHT22;3619;53.784;10.440;2023-03-02T12:50:53;3.00;99.90
7155;DHT22;3619;53.784;10.440;2023-03-02T12:53:21;3.10;99.90
7155;DHT22;3619;53.784;10.440;2023-03-02T12:55:49;3.10;99.90
7155;DHT22;3619;53.784;10.440;2023-03-02T12:58:18;3.10;99.90
7155;DHT22;3619;53.784;10.440;2023-03-02T13:00:54;2.90;99.90
7155;DHT22;3619;53.784;10.440;2023-03-02T13:03:22;2.80;99.90
7155;DHT22;3619;53.784;10.440;2023-03-02T13:05:49;2.80;99.90
7155;DHT22;3619;53.784;10.440;2023-03-02T13:08:17;2.90;99.90
7155;DHT22;3619;53.784;10.440;2023-03-02T13:10:51;2.70;99.90
7155;DHT22;3619;53.784;10.440;2023-03-02T13:13:20;2.80;99.90
7155;DHT22;3619;53.784;10.440;2023-03-02T13:15:50;2.90;99.90
7155;DHT22;3619;53.784;10.440;2023-03-02T13:18:18;2.90;99.90
7155;DHT22;3619;53.784;10.440;2023-03-02T13:20:46;3.00;99.90
7155;DHT22;3619;53.784;10.440;2023-03-02T13:23:15;3.20;99.90
7155;DHT22;3619;53.784;10.440;2023-03-02T13:25:51;3.30;99.90
7155;DHT22;3619;53.784;10.440;2023-03-02T13:28:26;3.30;99.90
7155;DHT22;3619;53.784;10.440;2023-03-02T13:31:02;3.30;99.90
7155;DHT22;3619;53.784;10.440;2023-03-02T13:33:30;3.20;99.90
7155;DHT22;3619;53.784;10.440;2023-03-02T13:35:58;3.20;99.90
7155;DHT22;3619;53.784;10.440;2023-03-02T13:38:28;3.20;99.90
7155;DHT22;3619;53.784;10.440;2023-03-02T13:40:57;3.50;99.90
7155;DHT22;3619;53.784;10.440;2023-03-02T13:43:34;3.60;99.90
7155;DHT22;3619;53.784;10.440;2023-03-02T13:46:03;3.80;99.90
7155;DHT22;3619;53.784;10.440;2023-03-02T13:48:31;3.90;99.90
7155;DHT22;3619;53.784;10.440;2023-03-02T13:51:00;3.80;99.90
7155;DHT22;3619;53.784;10.440;2023-03-02T13:53:29;3.70;99.90
7155;DHT22;3619;53.784;10.440;2023-03-02T13:56:03;3.60;99.90
7155;DHT22;3619;53.784;10.440;2023-03-02T13:58:34;3.50;99.90
7155;DHT22;3619;53.784;10.440;2023-03-02T14:01:04;3.50;99.90
7155;DHT22;3619;53.784;10.440;2023-03-02T14:03:31;3.50;99.90
7155;DHT22;3619;53.784;10.440;2023-03-02T14:05:59;3.60;99.90
7155;DHT22;3619;53.784;10.440;2023-03-02T14:08:26;3.60;99.90
7155;DHT22;3619;53.784;10.440;2023-03-02T14:10:54;3.50;99.90
7155;DHT22;3619;53.784;10.440;2023-03-02T14:13:33;3.50;99.90
7155;DHT22;3619;53.784;10.440;2023-03-02T14:16:01;3.40;99.90
7155;DHT22;3619;53.784;10.440;2023-03-02T14:18:34;3.50;99.90
7155;DHT22;3619;53.784;10.440;2023-03-02T14:21:01;3.50;99.90
7155;DHT22;3619;53.784;10.440;2023-03-02T14:23:31;3.40;99.90
7155;DHT22;3619;53.784;10.440;2023-03-02T14:25:58;3.30;99.90
7155;DHT22;3619;53.784;10.440;2023-03-02T14:28:29;3.40;99.90
7155;DHT22;3619;53.784;10.440;2023-03-02T14:30:57;3.50;99.90
7155;DHT22;3619;53.784;10.440;2023-03-02T14:33:24;3.50;99.90
7155;DHT22;3619;53.784;10.440;2023-03-02T14:35:52;3.40;99.90
7155;DHT22;3619;53.784;10.440;2023-03-02T14:38:20;3.50;99.90
7155;DHT22;3619;53.784;10.440;2023-03-02T14:40:47;3.50;99.90
7155;DHT22;3619;53.784;10.440;2023-03-02T14:43:14;3.50;99.90
7155;DHT22;3619;53.784;10.440;2023-03-02T14:45:44;3.60;99.90
7155;DHT22;3619;53.784;10.440;2023-03-02T14:48:11;3.70;99.90
7155;DHT22;3619;53.784;10.440;2023-03-02T14:50:39;3.80;99.90
7155;DHT22;3619;53.784;10.440;2023-03-02T14:53:11;3.90;99.90
7155;DHT22;3619;53.784;10.440;2023-03-02T14:55:40;4.00;99.90
7155;DHT22;3619;53.784;10.440;2023-03-02T14:58:11;4.00;99.90
7155;DHT22;3619;53.784;10.440;2023-03-02T15:00:39;4.10;99.90
7155;DHT22;3619;53.784;10.440;2023-03-02T15:03:12;4.10;99.90
7155;DHT22;3619;53.784;10.440;2023-03-02T15:05:40;4.20;99.90
7155;DHT22;3619;53.784;10.440;2023-03-02T15:08:11;4.30;99.90
7155;DHT22;3619;53.784;10.440;2023-03-02T15:10:39;4.20;99.90
7155;DHT22;3619;53.784;10.440;2023-03-02T15:13:08;4.20;99.90
7155;DHT22;3619;53.784;10.440;2023-03-02T15:15:35;4.10;99.90
7155;DHT22;3619;53.784;10.440;2023-03-02T15:18:03;4.10;99.90
7155;DHT22;3619;53.784;10.440;2023-03-02T15:20:31;4.10;99.90
7155;DHT22;3619;53.784;10.440;2023-03-02T15:22:59;4.20;99.90
7155;DHT22;3619;53.784;10.440;2023-03-02T15:25:26;4.30;99.90
7155;DHT22;3619;53.784;10.440;2023-03-02T15:27:54;4.30;99.90
7155;DHT22;3619;53.784;10.440;2023-03-02T15:30:21;4.30;99.90
7155;DHT22;3619;53.784;10.440;2023-03-02T15:32:48;4.30;99.90
7155;DHT22;3619;53.784;10.440;2023-03-02T15:35:16;4.40;99.90
7155;DHT22;3619;53.784;10.440;2023-03-02T15:37:44;4.40;99.90
7155;DHT22;3619;53.784;10.440;2023-03-02T15:40:11;4.50;99.90
7155;DHT22;3619;53.784;10.440;2023-03-02T15:42:38;4.40;99.90
7155;DHT22;3619;53.784;10.440;2023-03-02T15:45:07;4.40;99.90
7155;DHT22;3619;53.784;10.440;2023-03-02T15:47:34;4.30;99.90
7155;DHT22;3619;53.784;10.440;2023-03-02T15:50:02;4.30;99.90
7155;DHT22;3619;53.784;10.440;2023-03-02T15:52:29;4.30;99.90
7155;DHT22;3619;53.784;10.440;2023-03-02T15:54:57;4.30;99.90
7155;DHT22;3619;53.784;10.440;2023-03-02T15:57:24;4.30;99.90
7155;DHT22;3619;53.784;10.440;2023-03-02T15:59:53;4.40;99.90
7155;DHT22;3619;53.784;10.440;2023-03-02T16:02:20;4.30;99.90
7155;DHT22;3619;53.784;10.440;2023-03-02T16:04:47;4.20;99.90
7155;DHT22;3619;53.784;10.440;2023-03-02T16:07:13;4.20;99.90
7155;DHT22;3619;53.784;10.440;2023-03-02T16:09:40;4.20;99.90
7155;DHT22;3619;53.784;10.440;2023-03-02T16:12:11;4.10;99.90
7155;DHT22;3619;53.784;10.440;2023-03-02T16:14:37;4.10;99.90
7155;DHT22;3619;53.784;10.440;2023-03-02T16:17:04;4.10;99.90
7155;DHT22;3619;53.784;10.440;2023-03-02T16:19:31;4.00;99.90
7155;DHT22;3619;53.784;10.440;2023-03-02T16:21:58;4.00;99.90
7155;DHT22;3619;53.784;10.440;2023-03-02T16:24:24;4.00;99.90
7155;DHT22;3619;53.784;10.440;2023-03-02T16:26:52;4.00;99.90
7155;DHT22;3619;53.784;10.440;2023-03-02T16:29:20;4.00;99.90
7155;DHT22;3619;53.784;10.440;2023-03-02T16:31:48;4.00;99.90
7155;DHT22;3619;53.784;10.440;2023-03-02T16:34:15;4.00;99.90
7155;DHT22;3619;53.784;10.440;2023-03-02T16:36:42;3.90;99.90
7155;DHT22;3619;53.784;10.440;2023-03-02T16:39:11;3.90;99.90
7155;DHT22;3619;53.784;10.440;2023-03-02T16:41:40;4.00;99.90
7155;DHT22;3619;53.784;10.440;2023-03-02T16:44:08;4.00;99.90
7155;DHT22;3619;53.784;10.440;2023-03-02T16:46:40;4.00;99.90
7155;DHT22;3619;53.784;10.440;2023-03-02T16:49:08;4.00;99.90
7155;DHT22;3619;53.784;10.440;2023-03-02T16:51:52;4.00;99.90
7155;DHT22;3619;53.784;10.440;2023-03-02T16:54:30;4.00;99.90
7155;DHT22;3619;53.784;10.440;2023-03-02T16:56:56;3.90;99.90
7155;DHT22;3619;53.784;10.440;2023-03-02T16:59:23;3.90;99.90
7155;DHT22;3619;53.784;10.440;2023-03-02T17:01:53;3.90;99.90
7155;DHT22;3619;53.784;10.440;2023-03-02T17:04:20;3.90;99.90
7155;DHT22;3619;53.784;10.440;2023-03-02T17:06:47;3.70;99.90
7155;DHT22;3619;53.784;10.440;2023-03-02T17:09:14;3.70;99.90
7155;DHT22;3619;53.784;10.440;2023-03-02T17:11:41;3.70;99.90
7155;DHT22;3619;53.784;10.440;2023-03-02T17:14:08;3.60;99.90
7155;DHT22;3619;53.784;10.440;2023-03-02T17:16:36;3.40;99.90
7155;DHT22;3619;53.784;10.440;2023-03-02T17:19:07;3.30;99.90
7155;DHT22;3619;53.784;10.440;2023-03-02T17:21:35;3.30;99.90
7155;DHT22;3619;53.784;10.440;2023-03-02T17:24:03;3.30;99.90
7155;DHT22;3619;53.784;10.440;2023-03-02T17:26:29;3.10;99.90
7155;DHT22;3619;53.784;10.440;2023-03-02T17:28:56;3.00;99.90
7155;DHT22;3619;53.784;10.440;2023-03-02T17:31:23;2.90;99.90
7155;DHT22;3619;53.784;10.440;2023-03-02T17:33:50;2.80;99.90
7155;DHT22;3619;53.784;10.440;2023-03-02T17:36:18;2.70;99.90
7155;DHT22;3619;53.784;10.440;2023-03-02T17:38:47;2.50;99.90
7155;DHT22;3619;53.784;10.440;2023-03-02T17:41:14;2.50;99.90
7155;DHT22;3619;53.784;10.440;2023-03-02T17:43:41;2.40;99.90
7155;DHT22;3619;53.784;10.440;2023-03-02T17:46:10;2.30;99.90
7155;DHT22;3619;53.784;10.440;2023-03-02T17:48:37;2.30;99.90
7155;DHT22;3619;53.784;10.440;2023-03-02T17:51:05;2.20;99.90
7155;DHT22;3619;53.784;10.440;2023-03-02T17:53:33;2.20;99.90
7155;DHT22;3619;53.784;10.440;2023-03-02T17:56:00;2.10;99.90
7155;DHT22;3619;53.784;10.440;2023-03-02T17:58:26;2.10;99.90
7155;DHT22;3619;53.784;10.440;2023-03-02T18:00:53;2.00;99.90
7155;DHT22;3619;53.784;10.440;2023-03-02T18:03:20;2.00;99.90
7155;DHT22;3619;53.784;10.440;2023-03-02T18:05:47;2.10;99.90
7155;DHT22;3619;53.784;10.440;2023-03-02T18:08:13;2.00;99.90
7155;DHT22;3619;53.784;10.440;2023-03-02T18:10:42;1.90;99.90
7155;DHT22;3619;53.784;10.440;2023-03-02T18:13:08;1.80;99.90
7155;DHT22;3619;53.784;10.440;2023-03-02T18:15:35;1.70;99.90
7155;DHT22;3619;53.784;10.440;2023-03-02T18:18:02;1.70;99.90
7155;DHT22;3619;53.784;10.440;2023-03-02T18:20:30;1.70;99.90
7155;DHT22;3619;53.784;10.440;2023-03-02T18:22:57;1.60;99.90
7155;DHT22;3619;53.784;10.440;2023-03-02T18:25:24;1.60;99.90
7155;DHT22;3619;53.784;10.440;2023-03-02T18:27:52;1.50;99.90
7155;DHT22;3619;53.784;10.440;2023-03-02T18:30:19;1.50;99.90
7155;DHT22;3619;53.784;10.440;2023-03-02T18:32:46;1.40;99.90
7155;DHT22;3619;53.784;10.440;2023-03-02T18:35:14;1.40;99.90
7155;DHT22;3619;53.784;10.440;2023-03-02T18:37:41;1.40;99.90
7155;DHT22;3619;53.784;10.440;2023-03-02T18:40:09;1.30;99.90
7155;DHT22;3619;53.784;10.440;2023-03-02T18:42:36;1.30;99.90
7155;DHT22;3619;53.784;10.440;2023-03-02T18:45:07;1.40;99.90
7155;DHT22;3619;53.784;10.440;2023-03-02T18:47:34;1.30;99.90
7155;DHT22;3619;53.784;10.440;2023-03-02T18:50:02;1.30;99.90
7155;DHT22;3619;53.784;10.440;2023-03-02T18:52:29;1.10;99.90
7155;DHT22;3619;53.784;10.440;2023-03-02T18:54:56;1.10;99.90
7155;DHT22;3619;53.784;10.440;2023-03-02T18:57:23;1.00;99.90
7155;DHT22;3619;53.784;10.440;2023-03-02T18:59:50;1.00;99.90
7155;DHT22;3619;53.784;10.440;2023-03-02T19:02:18;1.00;99.90
7155;DHT22;3619;53.784;10.440;2023-03-02T19:04:45;1.00;99.90
7155;DHT22;3619;53.784;10.440;2023-03-02T19:07:12;1.00;99.90
7155;DHT22;3619;53.784;10.440;2023-03-02T19:09:39;0.90;99.90
7155;DHT22;3619;53.784;10.440;2023-03-02T19:12:06;1.00;99.90
7155;DHT22;3619;53.784;10.440;2023-03-02T19:14:33;1.10;99.90
7155;DHT22;3619;53.784;10.440;2023-03-02T19:17:00;1.10;99.90
7155;DHT22;3619;53.784;10.440;2023-03-02T19:19:28;0.90;99.90
7155;DHT22;3619;53.784;10.440;2023-03-02T19:21:55;0.90;99.90
7155;DHT22;3619;53.784;10.440;2023-03-02T19:24:23;0.80;99.90
7155;DHT22;3619;53.784;10.440;2023-03-02T19:26:50;0.70;99.90
7155;DHT22;3619;53.784;10.440;2023-03-02T19:29:16;0.60;99.90
7155;DHT22;3619;53.784;10.440;2023-03-02T19:31:43;0.50;99.90
7155;DHT22;3619;53.784;10.440;2023-03-02T19:34:10;0.50;99.90
7155;DHT22;3619;53.784;10.440;2023-03-02T19:36:38;0.60;99.90
7155;DHT22;3619;53.784;10.440;2023-03-02T19:39:05;0.50;99.90
7155;DHT22;3619;53.784;10.440;2023-03-02T19:41:32;0.40;99.90
7155;DHT22;3619;53.784;10.440;2023-03-02T19:43:59;0.40;99.90
7155;DHT22;3619;53.784;10.440;2023-03-02T19:46:26;0.40;99.90
7155;DHT22;3619;53.784;10.440;2023-03-02T19:48:53;0.30;99.90
7155;DHT22;3619;53.784;10.440;2023-03-02T19:51:20;0.10;99.90
7155;DHT22;3619;53.784;10.440;2023-03-02T19:53:48;0.20;99.90
7155;DHT22;3619;53.784;10.440;2023-03-02T19:56:15;0.10;99.90
7155;DHT22;3619;53.784;10.440;2023-03-02T19:58:44;0.10;99.90
7155;DHT22;3619;53.784;10.440;2023-03-02T20:01:19;0.10;99.90
7155;DHT22;3619;53.784;10.440;2023-03-02T20:03:49;0.00;99.90
7155;DHT22;3619;53.784;10.440;2023-03-02T20:06:17;0.00;99.90
7155;DHT22;3619;53.784;10.440;2023-03-02T20:08:44;0.00;99.90
7155;DHT22;3619;53.784;10.440;2023-03-02T20:11:13;-0.10;99.90
7155;DHT22;3619;53.784;10.440;2023-03-02T20:13:40;-0.10;99.90
7155;DHT22;3619;53.784;10.440;2023-03-02T20:16:09;-0.20;99.90
7155;DHT22;3619;53.784;10.440;2023-03-02T20:18:36;-0.10;99.90
7155;DHT22;3619;53.784;10.440;2023-03-02T20:21:05;-0.10;99.90
7155;DHT22;3619;53.784;10.440;2023-03-02T20:23:38;-0.20;99.90
7155;DHT22;3619;53.784;10.440;2023-03-02T20:26:05;-0.30;99.90
7155;DHT22;3619;53.784;10.440;2023-03-02T20:28:34;-0.30;99.90
7155;DHT22;3619;53.784;10.440;2023-03-02T20:31:05;-0.40;99.90
7155;DHT22;3619;53.784;10.440;2023-03-02T20:33:36;-0.40;99.90
7155;DHT22;3619;53.784;10.440;2023-03-02T20:36:04;-0.60;99.90
7155;DHT22;3619;53.784;10.440;2023-03-02T20:38:34;-0.40;99.90
7155;DHT22;3619;53.784;10.440;2023-03-02T20:41:01;-0.50;99.90
7155;DHT22;3619;53.784;10.440;2023-03-02T20:43:28;-0.50;99.90
7155;DHT22;3619;53.784;10.440;2023-03-02T20:45:57;-0.50;99.90
7155;DHT22;3619;53.784;10.440;2023-03-02T20:48:25;-0.30;99.90
7155;DHT22;3619;53.784;10.440;2023-03-02T20:50:52;-0.50;99.90
7155;DHT22;3619;53.784;10.440;2023-03-02T20:53:19;-0.40;99.90
7155;DHT22;3619;53.784;10.440;2023-03-02T20:55:46;-0.40;99.90
7155;DHT22;3619;53.784;10.440;2023-03-02T20:58:13;-0.40;99.90
7155;DHT22;3619;53.784;10.440;2023-03-02T21:00:40;-0.40;99.90